Gold Beach, OR

1:19 PM PDT on August 27, 2014 (GMT -0700)
Weather Hawk | Change Station
CLOSE
Current Station
Personal Weather Station
Location: Gold Beach, OR
Elevation: 128 ft
Nearby Weather Stations

Elev 128 ft 42.53 °N, 124.39 °W | Updated 1 second ago

Clear
Clear
68.9 °F
Feels Like 68.9 °F
N
3.8
Wind Variable Wind from North
Gusts 4.5 mph

Today
High -- | Low -- °F
--% Chance of Precip.
Yesterday
High -- | Low -- °F
Precip. -- in
6:37 AM 7:59 PM
Waxing Crescent, 5% visible
Pressure 30.09 in
Visibility 10.0 miles
Clouds Clear
Dew Point 57 °F
Humidity 66%
Rainfall 0.00 in
Snow Depth Not available.
UV 9 out of 12
Pollen 6.30 out of 12
Air Quality Not available.
Flu Activity Not available.
METAR KBOK 271956Z AUTO 00000KT 10SM CLR 19/13 A3008 RMK AO2 T01880133 SLP187

More Conditions Fewer Conditions

Pressure 30.09 in
Visibility 10.0 miles
Clouds Clear
Dew Point 57 °F
Humidity 66%
Rainfall 0.00 in
Snow Depth Not available.
UV 9 out of 12
Pollen 6.30 out of 12
Air Quality Not available.
Flu Activity Not available.
METAR KBOK 271956Z AUTO 00000KT 10SM CLR 19/13 A3008 RMK AO2 T01880133 SLP187

More Conditions Fewer Conditions

10-Day Weather Forecast

Almanac

Astronomy

Aug. 27, 2014 Rise Set
Actual Time 6:37 AM PDT 7:59 PM PDT
Civil Twilight 6:08 AM PDT 8:28 PM PDT
Nautical Twilight 5:32 AM PDT 9:03 PM PDT
Astronomical Twilight 4:55 AM PDT 9:41 PM PDT
Moon 8:42 AM PDT 8:51 PM PDT
Length of Visible Light 14h 20m
Length of Day
13h 22m
Tomorrow will be 2m 43s shorter.
Waxing Crescent, 5% of the Moon is Illuminated
Today
Waxing Crescent
Sep 2
First Quarter
Sep 8
Full
Sep 15
Last Quarter
Sep 24
New

Today's Extremes

State Highs State Lows

Community

WunderPhotos

Upload Photos

1,747,775 photos uploaded!

Nearby

Snow Depth

Station Depth Elevation
Fish Lake 0 in 4665 ft
Sevenmile Marsh 0 in 6200 ft
Diamond Lake 0 in 5315 ft
Strawberry 1 in 5760 ft
Irish Taylor 0 in 5500 ft

Earthquake Activity

City Distance Mag. Time & Date
Waldport, Oregon 153 miles 2.5 10:59 PM PDT
2014-08-25
Minimum magnitude displayed is 2.5.

Coastal Water Temperatures

Place Temperature
Port Orford, OR 53.1 °F
Crescent City, CA 59.0 °F
Charleston, OR 52.0 °F

Nearby Weather Stations